Time;durP1;ratioP1;P1;durP2;ratioP2;P2;SDS_P1;SDS_P2;PMS_P1;PMS_P2;Temp;Humidity;BMP_temperature;BMP_pressure;BME280_temperature;BME280_humidity;BME280_pressure;Samples;Min_cycle;Max_cycle;Signal;HPM_P1;HPM_P2
2022/09/02 00:00:05;;;;;;;6.47;2.33;;;18.60;53.30;;;;;;942891;150;27294;-75
2022/09/02 00:02:30;;;;;;;1.55;1.20;;;18.60;53.30;;;;;;943941;150;27563;-75
2022/09/02 00:04:56;;;;;;;1.35;0.90;;;18.70;53.30;;;;;;943263;150;27380;-75
2022/09/02 00:07:22;;;;;;;1.55;1.22;;;18.70;53.30;;;;;;944359;150;27364;-75
2022/09/02 00:09:49;;;;;;;1.30;0.95;;;18.60;53.30;;;;;;941126;150;27354;-75
2022/09/02 00:12:15;;;;;;;1.72;1.10;;;18.60;53.30;;;;;;942746;150;27856;-75
2022/09/02 00:14:42;;;;;;;1.22;1.15;;;18.60;53.30;;;;;;944064;148;27410;-75
2022/09/02 00:17:09;;;;;;;1.62;1.52;;;18.50;53.30;;;;;;946761;150;27362;-75
2022/09/02 00:19:37;;;;;;;1.37;0.90;;;18.40;53.30;;;;;;947575;150;27353;-75
2022/09/02 00:22:02;;;;;;;2.27;1.27;;;18.40;53.30;;;;;;947896;150;27382;-75
2022/09/02 00:24:28;;;;;;;1.40;1.00;;;18.30;53.40;;;;;;948396;148;27464;-75
2022/09/02 00:26:55;;;;;;;1.98;1.10;;;18.20;53.50;;;;;;946734;150;27289;-75
2022/09/02 00:29:21;;;;;;;1.07;1.07;;;18.10;53.70;;;;;;947528;150;27257;-75
2022/09/02 00:31:48;;;;;;;1.12;1.00;;;18.10;53.80;;;;;;946343;147;27353;-75
2022/09/02 00:34:15;;;;;;;0.90;0.90;;;18.00;54.00;;;;;;947217;150;27388;-75
2022/09/02 00:36:41;;;;;;;1.52;1.10;;;18.00;54.10;;;;;;947444;150;27365;-75
2022/09/02 00:39:08;;;;;;;4.47;1.02;;;17.90;54.20;;;;;;947281;150;27333;-75
2022/09/02 00:41:34;;;;;;;1.10;1.10;;;17.90;54.40;;;;;;944484;147;27400;-75
2022/09/02 00:44:02;;;;;;;1.57;1.20;;;17.90;54.50;;;;;;948842;150;27305;-75
2022/09/02 00:46:28;;;;;;;1.10;1.07;;;17.80;54.50;;;;;;947777;147;27429;-75
2022/09/02 00:49:17;;;;;;;1.15;1.05;;;17.80;54.60;;;;;;945526;147;27341;-75
2022/09/02 00:51:52;;;;;;;1.32;1.10;;;17.80;54.70;;;;;;952768;147;28101;-75
2022/09/02 00:54:19;;;;;;;1.27;1.17;;;17.80;54.60;;;;;;951827;147;27792;-75
2022/09/02 00:56:45;;;;;;;1.10;1.02;;;17.80;54.70;;;;;;951321;147;27385;-75
2022/09/02 00:59:13;;;;;;;1.20;1.10;;;17.80;54.80;;;;;;952647;147;27366;-75
2022/09/02 01:01:38;;;;;;;0.90;0.90;;;17.70;54.80;;;;;;950732;147;27708;-75
2022/09/02 01:04:05;;;;;;;0.93;0.93;;;17.70;54.80;;;;;;953061;147;27453;-75
2022/09/02 01:06:32;;;;;;;1.30;1.20;;;17.70;54.90;;;;;;951276;147;27343;-75
2022/09/02 01:09:01;;;;;;;2.67;1.37;;;17.70;54.90;;;;;;952136;147;27289;-75
2022/09/02 01:11:31;;;;;;;2.45;1.00;;;17.60;55.00;;;;;;951298;147;27336;-75
2022/09/02 01:13:54;;;;;;;2.10;1.10;;;17.60;55.10;;;;;;951932;147;27321;-75
2022/09/02 01:16:23;;;;;;;1.25;1.15;;;17.60;55.20;;;;;;951836;147;27385;-75
2022/09/02 01:18:49;;;;;;;1.10;0.87;;;17.50;55.30;;;;;;951685;147;27429;-75
2022/09/02 01:21:16;;;;;;;0.97;0.97;;;17.40;55.30;;;;;;951807;147;27506;-75
2022/09/02 01:23:43;;;;;;;1.40;1.20;;;17.30;55.30;;;;;;951580;147;27343;-75
2022/09/02 01:26:09;;;;;;;2.50;0.93;;;17.30;55.60;;;;;;951384;147;27370;-75
2022/09/02 01:28:36;;;;;;;1.30;1.20;;;17.20;55.70;;;;;;951636;147;27470;-75
2022/09/02 01:31:02;;;;;;;1.02;0.93;;;17.10;55.70;;;;;;952099;147;27423;-75
2022/09/02 01:33:29;;;;;;;2.75;1.20;;;17.00;55.90;;;;;;951881;147;27370;-75
2022/09/02 01:35:56;;;;;;;1.30;1.20;;;16.90;56.10;;;;;;952248;147;27356;-75
2022/09/02 01:38:22;;;;;;;1.33;1.23;;;16.90;56.30;;;;;;951771;147;27329;-75
2022/09/02 01:40:49;;;;;;;1.50;1.00;;;16.80;55.80;;;;;;952273;147;27413;-75
2022/09/02 01:43:15;;;;;;;1.20;0.97;;;16.70;56.50;;;;;;951871;147;27345;-75
2022/09/02 01:45:42;;;;;;;0.97;0.93;;;16.60;56.60;;;;;;951514;147;27431;-75
2022/09/02 01:48:09;;;;;;;1.37;1.27;;;16.60;56.70;;;;;;951929;147;27431;-75
2022/09/02 01:50:35;;;;;;;1.90;1.40;;;16.60;56.90;;;;;;952190;147;27362;-75
2022/09/02 01:53:02;;;;;;;1.30;1.30;;;16.50;56.90;;;;;;952004;147;27397;-75
2022/09/02 01:55:28;;;;;;;0.80;0.80;;;16.50;57.00;;;;;;952103;147;27345;-75
2022/09/02 01:57:55;;;;;;;1.10;1.10;;;16.50;57.10;;;;;;952150;147;27433;-77
2022/09/02 02:00:21;;;;;;;1.00;1.00;;;16.40;57.20;;;;;;951983;147;27330;-75
2022/09/02 02:02:48;;;;;;;2.63;1.83;;;16.40;57.30;;;;;;952030;147;27429;-75
2022/09/02 02:05:15;;;;;;;1.27;1.17;;;16.40;57.40;;;;;;953194;147;27365;-75
2022/09/02 02:07:41;;;;;;;1.03;0.90;;;16.40;57.40;;;;;;951489;147;27450;-75
2022/09/02 02:10:09;;;;;;;0.87;0.87;;;16.40;57.40;;;;;;953007;147;27329;-75
2022/09/02 02:12:34;;;;;;;1.93;1.40;;;16.40;57.60;;;;;;951570;147;27277;-75
2022/09/02 02:15:01;;;;;;;4.73;1.40;;;16.30;57.60;;;;;;952389;147;27313;-75
2022/09/02 02:17:28;;;;;;;1.27;1.17;;;16.30;57.70;;;;;;951826;147;27340;-75
2022/09/02 02:19:54;;;;;;;1.50;1.33;;;16.30;57.80;;;;;;952883;147;27383;-75
2022/09/02 02:22:21;;;;;;;1.23;1.13;;;16.30;57.90;;;;;;951907;147;27366;-75
2022/09/02 02:24:47;;;;;;;1.27;1.13;;;16.30;57.90;;;;;;952587;147;27419;-74
2022/09/02 02:27:14;;;;;;;1.87;1.10;;;16.30;58.00;;;;;;951623;147;27422;-75
2022/09/02 02:29:40;;;;;;;1.10;1.10;;;16.30;58.00;;;;;;952312;147;27411;-75
2022/09/02 02:32:07;;;;;;;1.15;1.07;;;16.30;58.00;;;;;;951792;147;27458;-75
2022/09/02 02:34:34;;;;;;;1.27;1.27;;;16.30;58.10;;;;;;952107;147;27342;-75
2022/09/02 02:37:00;;;;;;;1.07;0.93;;;16.20;58.00;;;;;;952267;147;27345;-75
2022/09/02 02:39:27;;;;;;;1.60;1.17;;;16.20;58.10;;;;;;952453;147;27423;-75
2022/09/02 02:41:53;;;;;;;1.10;1.10;;;16.20;58.10;;;;;;951839;147;27900;-75
2022/09/02 02:44:20;;;;;;;1.07;0.90;;;16.10;58.20;;;;;;952161;147;27377;-75
2022/09/02 02:46:47;;;;;;;1.20;1.10;;;16.10;58.90;;;;;;952574;147;27372;-75
2022/09/02 02:49:13;;;;;;;1.13;1.07;;;16.10;58.40;;;;;;952070;147;27338;-75
2022/09/02 02:51:40;;;;;;;1.50;1.40;;;16.00;58.60;;;;;;951857;147;27385;-74
2022/09/02 02:54:06;;;;;;;1.05;1.05;;;16.00;58.60;;;;;;952940;148;27347;-75
2022/09/02 02:56:33;;;;;;;1.40;1.13;;;15.90;58.70;;;;;;952718;148;27346;-75
2022/09/02 02:59:02;;;;;;;3.93;1.40;;;15.90;58.80;;;;;;933390;150;27397;-74
2022/09/02 03:01:26;;;;;;;1.30;1.20;;;15.90;58.90;;;;;;915515;153;27897;-75
2022/09/02 03:03:53;;;;;;;1.23;1.23;;;15.80;58.90;;;;;;920312;153;27370;-75
2022/09/02 03:06:19;;;;;;;1.37;1.27;;;15.80;59.10;;;;;;934458;151;27447;-75
2022/09/02 03:08:47;;;;;;;1.57;1.30;;;15.70;59.20;;;;;;935480;150;27439;-75
2022/09/02 03:11:13;;;;;;;1.63;1.53;;;15.70;59.30;;;;;;935090;150;27366;-75
2022/09/02 03:13:39;;;;;;;1.20;1.20;;;15.70;59.50;;;;;;935027;150;27861;-75
2022/09/02 03:16:06;;;;;;;1.40;1.30;;;15.70;59.60;;;;;;935347;150;27278;-75
2022/09/02 03:18:32;;;;;;;1.33;1.23;;;15.60;59.60;;;;;;935150;150;27358;-74
2022/09/02 03:20:59;;;;;;;1.37;1.30;;;15.60;59.70;;;;;;935777;150;27317;-75
2022/09/02 03:23:25;;;;;;;1.40;1.30;;;15.60;59.90;;;;;;935500;150;27357;-74
2022/09/02 03:25:52;;;;;;;1.33;1.30;;;15.60;60.00;;;;;;935182;150;27464;-75
2022/09/02 03:28:19;;;;;;;1.50;1.40;;;15.60;60.10;;;;;;934576;150;27310;-75
2022/09/02 03:30:45;;;;;;;1.50;1.40;;;15.60;60.20;;;;;;935062;150;27794;-75
2022/09/02 03:33:12;;;;;;;2.10;1.20;;;15.50;60.30;;;;;;935118;150;27346;-75
2022/09/02 03:35:38;;;;;;;1.10;1.00;;;15.50;60.30;;;;;;935565;150;27286;-74
2022/09/02 03:38:05;;;;;;;1.53;1.43;;;15.50;60.30;;;;;;934622;150;27354;-75
2022/09/02 03:40:32;;;;;;;1.40;1.30;;;15.50;60.30;;;;;;916244;153;27590;-74
2022/09/02 03:42:58;;;;;;;1.53;1.40;;;15.50;60.40;;;;;;915423;153;27352;-74
2022/09/02 03:45:25;;;;;;;1.93;1.50;;;15.50;60.50;;;;;;935849;151;27467;-75
2022/09/02 03:47:53;;;;;;;1.60;1.50;;;15.40;60.60;;;;;;917538;153;27363;-74
2022/09/02 03:50:19;;;;;;;1.37;1.27;;;15.40;60.60;;;;;;934321;150;27400;-75
2022/09/02 03:52:45;;;;;;;2.43;1.80;;;15.30;60.60;;;;;;931994;150;27480;-74
2022/09/02 03:55:11;;;;;;;1.43;1.33;;;15.30;60.70;;;;;;942933;150;27370;-75
2022/09/02 03:57:38;;;;;;;1.63;1.50;;;15.20;60.70;;;;;;943413;150;27335;-75
2022/09/02 04:00:05;;;;;;;2.57;1.70;;;15.20;60.90;;;;;;943433;150;27280;-75
2022/09/02 04:02:31;;;;;;;1.60;1.50;;;15.20;61.20;;;;;;942761;150;27323;-74
2022/09/02 04:04:58;;;;;;;1.67;1.57;;;15.10;61.20;;;;;;943378;150;27542;-75
2022/09/02 04:07:24;;;;;;;1.60;1.50;;;15.10;61.30;;;;;;943115;150;27460;-75
2022/09/02 04:09:51;;;;;;;2.00;1.80;;;15.00;61.30;;;;;;943317;150;27429;-75
2022/09/02 04:12:17;;;;;;;1.60;1.50;;;15.00;61.50;;;;;;942459;149;27784;-74
2022/09/02 04:14:44;;;;;;;2.20;1.67;;;15.00;61.70;;;;;;942519;149;27420;-74
2022/09/02 04:17:11;;;;;;;1.63;1.53;;;14.90;61.70;;;;;;943235;150;27436;-75
2022/09/02 04:19:38;;;;;;;1.77;1.30;;;14.90;61.80;;;;;;943258;150;27451;-75
2022/09/02 04:22:04;;;;;;;1.63;1.50;;;14.90;62.00;;;;;;943327;150;27441;-74
2022/09/02 04:24:30;;;;;;;5.07;1.80;;;14.80;62.00;;;;;;943745;150;27413;-74
2022/09/02 04:26:57;;;;;;;2.00;1.80;;;14.80;62.20;;;;;;942970;150;27296;-75
2022/09/02 04:29:25;;;;;;;3.10;1.70;;;14.80;62.30;;;;;;942912;149;27427;-74
2022/09/02 04:31:50;;;;;;;2.47;1.47;;;14.70;62.50;;;;;;943008;150;27742;-74
2022/09/02 04:34:17;;;;;;;2.60;1.60;;;14.70;62.50;;;;;;943090;150;27432;-75
2022/09/02 04:36:43;;;;;;;1.73;1.63;;;14.70;62.70;;;;;;943049;150;27339;-75
2022/09/02 04:39:10;;;;;;;1.80;1.57;;;14.70;62.80;;;;;;943019;150;27330;-74
2022/09/02 04:41:36;;;;;;;1.43;1.33;;;14.70;63.00;;;;;;943190;149;27374;-75
2022/09/02 04:44:03;;;;;;;2.17;1.47;;;14.70;63.10;;;;;;943291;150;27373;-75
2022/09/02 04:46:30;;;;;;;1.60;1.50;;;14.70;63.30;;;;;;943223;150;27468;-76
2022/09/02 04:48:56;;;;;;;2.63;1.33;;;14.70;63.40;;;;;;943439;150;27397;-75
2022/09/02 04:51:23;;;;;;;1.53;1.20;;;14.80;63.50;;;;;;943251;150;27343;-75
2022/09/02 04:53:49;;;;;;;2.10;1.33;;;14.80;63.70;;;;;;942723;150;27404;-76
2022/09/02 04:56:16;;;;;;;1.40;1.30;;;14.90;63.70;;;;;;943306;150;27378;-75
2022/09/02 04:58:45;;;;;;;1.77;1.67;;;14.90;63.80;;;;;;942670;150;27355;-75
2022/09/02 05:01:15;;;;;;;1.33;1.30;;;15.00;63.70;;;;;;943002;150;27399;-75
2022/09/02 05:03:41;;;;;;;2.40;1.80;;;15.10;63.80;;;;;;942301;150;27408;-75
2022/09/02 05:06:08;;;;;;;1.57;1.30;;;15.20;64.10;;;;;;943016;150;27367;-76
2022/09/02 05:08:37;;;;;;;1.47;1.37;;;15.40;64.30;;;;;;942918;150;27378;-76
2022/09/02 05:11:06;;;;;;;1.20;1.10;;;15.60;64.80;;;;;;943134;149;27442;-75
2022/09/02 05:13:34;;;;;;;2.20;1.60;;;15.80;65.00;;;;;;943210;150;27272;-76
2022/09/02 05:16:00;;;;;;;1.35;1.25;;;16.20;65.30;;;;;;943298;150;27369;-76
2022/09/02 05:18:26;;;;;;;2.12;1.32;;;16.60;65.50;;;;;;943973;150;27447;-76
2022/09/02 05:20:53;;;;;;;2.33;1.07;;;17.10;65.50;;;;;;943280;149;27471;-76
2022/09/02 05:23:19;;;;;;;1.50;1.15;;;17.60;65.40;;;;;;943172;149;27429;-76
2022/09/02 05:25:46;;;;;;;1.52;1.37;;;18.30;65.90;;;;;;943597;150;27419;-76
2022/09/02 05:28:13;;;;;;;2.15;1.07;;;18.80;64.50;;;;;;942623;150;27288;-76
2022/09/02 05:30:39;;;;;;;1.02;1.02;;;19.60;63.80;;;;;;942884;149;27444;-76
2022/09/02 05:33:06;;;;;;;0.93;0.80;;;20.20;62.90;;;;;;943091;150;27745;-76
2022/09/02 05:35:32;;;;;;;1.32;1.00;;;20.90;62.00;;;;;;942598;149;28812;-76
2022/09/02 05:37:59;;;;;;;1.07;1.02;;;21.60;60.90;;;;;;943629;150;27269;-76
2022/09/02 05:40:26;;;;;;;1.27;1.05;;;22.40;60.00;;;;;;943431;149;27385;-76
2022/09/02 05:42:52;;;;;;;1.20;1.10;;;23.20;59.10;;;;;;943475;150;27420;-76
2022/09/02 05:45:19;;;;;;;4.62;1.17;;;23.90;58.30;;;;;;942966;150;27452;-76
2022/09/02 05:47:45;;;;;;;4.70;1.25;;;24.70;57.30;;;;;;942857;150;27363;-76
2022/09/02 05:50:13;;;;;;;1.95;1.02;;;25.40;56.30;;;;;;942542;150;27411;-75
2022/09/02 05:52:39;;;;;;;1.10;1.00;;;26.10;55.40;;;;;;943329;150;27367;-74
2022/09/02 05:55:05;;;;;;;2.85;1.72;;;26.80;54.40;;;;;;942775;150;27380;-74
2022/09/02 05:57:32;;;;;;;1.30;1.20;;;27.50;53.40;;;;;;943303;150;27456;-74
2022/09/02 05:59:58;;;;;;;1.50;1.20;;;28.10;52.50;;;;;;941695;150;27356;-75
2022/09/02 06:02:25;;;;;;;1.20;1.10;;;28.60;51.40;;;;;;943489;150;27425;-75
2022/09/02 06:04:52;;;;;;;2.37;1.50;;;29.10;50.50;;;;;;942732;150;27378;-75
2022/09/02 06:07:18;;;;;;;1.90;1.00;;;29.50;49.70;;;;;;943615;149;27260;-75
2022/09/02 06:09:45;;;;;;;1.50;0.95;;;29.90;49.00;;;;;;942874;150;27426;-75
2022/09/02 06:12:12;;;;;;;1.60;1.15;;;30.40;48.60;;;;;;943702;150;27358;-74
2022/09/02 06:14:38;;;;;;;2.62;1.15;;;30.80;47.90;;;;;;942762;149;28428;-75
2022/09/02 06:17:04;;;;;;;3.25;1.32;;;31.20;47.20;;;;;;942180;149;27344;-75
2022/09/02 06:19:31;;;;;;;3.55;1.10;;;31.60;46.60;;;;;;943470;150;27336;-75
2022/09/02 06:21:58;;;;;;;2.90;1.20;;;31.80;45.90;;;;;;943454;150;27837;-75
2022/09/02 06:24:24;;;;;;;0.98;0.88;;;32.20;45.10;;;;;;942898;150;27356;-75
2022/09/02 06:26:52;;;;;;;0.85;0.78;;;32.40;44.40;;;;;;943458;150;27460;-75
2022/09/02 06:29:17;;;;;;;1.72;1.00;;;32.50;43.50;;;;;;943240;150;27348;-75
2022/09/02 06:31:44;;;;;;;1.40;0.95;;;32.60;43.00;;;;;;942450;150;27363;-75
2022/09/02 06:34:12;;;;;;;1.45;1.00;;;32.80;42.80;;;;;;942970;150;27432;-75
2022/09/02 06:36:37;;;;;;;1.25;1.05;;;32.80;42.60;;;;;;941729;150;27393;-75
2022/09/02 06:39:04;;;;;;;1.20;1.10;;;32.90;42.20;;;;;;942650;149;27806;-75
2022/09/02 06:41:30;;;;;;;2.85;1.10;;;33.00;41.90;;;;;;943811;149;27448;-74
2022/09/02 06:43:57;;;;;;;1.98;1.00;;;33.20;41.80;;;;;;943036;150;27276;-75
2022/09/02 06:46:24;;;;;;;2.40;0.88;;;33.30;41.70;;;;;;943541;150;27425;-75
2022/09/02 06:48:50;;;;;;;2.47;1.20;;;33.60;41.40;;;;;;943687;150;27351;-75
2022/09/02 06:51:17;;;;;;;5.50;1.10;;;33.80;41.00;;;;;;943507;150;27443;-75
2022/09/02 06:53:43;;;;;;;1.70;1.00;;;34.10;40.50;;;;;;943390;150;27458;-75
2022/09/02 06:56:10;;;;;;;2.45;1.05;;;34.30;40.10;;;;;;943855;150;27485;-75
2022/09/02 06:58:36;;;;;;;1.37;0.90;;;34.50;39.70;;;;;;944332;150;27328;-75
2022/09/02 07:01:03;;;;;;;0.90;0.78;;;34.60;39.20;;;;;;943905;150;27341;-75
2022/09/02 07:06:14;;;;;;;0.62;0.62;;;35.00;38.80;;;;;;943666;150;27476;-75
2022/09/02 07:08:41;;;;;;;1.07;0.95;;;35.10;38.20;;;;;;943122;150;27497;-75
2022/09/02 07:11:07;;;;;;;1.85;0.90;;;35.30;37.90;;;;;;942988;150;27470;-75
2022/09/02 07:13:34;;;;;;;1.37;0.93;;;35.50;37.70;;;;;;941633;150;27391;-75
2022/09/02 07:16:01;;;;;;;1.85;0.80;;;35.60;37.10;;;;;;943850;148;27424;-76
2022/09/02 07:18:27;;;;;;;3.55;1.10;;;35.70;36.70;;;;;;943471;150;27367;-76
2022/09/02 07:20:54;;;;;;;1.27;1.22;;;35.80;36.40;;;;;;942816;150;27855;-76
2022/09/02 07:23:20;;;;;;;0.98;0.98;;;35.90;35.60;;;;;;942879;150;27808;-76
2022/09/02 07:25:47;;;;;;;0.93;0.90;;;35.90;35.50;;;;;;943190;149;27357;-76
2022/09/02 07:28:14;;;;;;;0.90;0.78;;;35.80;35.40;;;;;;942964;150;26350;-76
2022/09/02 07:30:40;;;;;;;1.70;0.95;;;35.80;35.00;;;;;;943189;150;27360;-76
2022/09/02 07:33:07;;;;;;;0.88;0.88;;;35.80;35.00;;;;;;942616;150;28058;-76
2022/09/02 07:35:35;;;;;;;1.17;0.90;;;35.80;34.80;;;;;;942481;150;26281;-76
2022/09/02 07:38:00;;;;;;;0.93;0.90;;;35.70;34.60;;;;;;942761;150;27386;-76
2022/09/02 07:40:26;;;;;;;1.27;0.93;;;35.70;34.80;;;;;;942437;150;27470;-76
2022/09/02 07:42:53;;;;;;;0.88;0.88;;;35.80;34.70;;;;;;943174;149;27926;-76
2022/09/02 07:45:20;;;;;;;1.40;0.80;;;35.80;34.60;;;;;;943931;150;27453;-76
2022/09/02 07:47:47;;;;;;;1.10;0.90;;;35.90;34.50;;;;;;944147;150;27409;-76
2022/09/02 07:50:13;;;;;;;1.47;0.72;;;36.00;34.60;;;;;;944130;150;26254;-76
2022/09/02 07:52:39;;;;;;;0.93;0.82;;;36.20;34.10;;;;;;944442;150;26339;-76
2022/09/02 07:55:06;;;;;;;0.93;0.90;;;36.30;33.70;;;;;;943540;150;27380;-76
2022/09/02 07:57:33;;;;;;;0.88;0.88;;;36.40;33.40;;;;;;943387;150;26289;-76
2022/09/02 07:59:59;;;;;;;3.12;1.00;;;36.50;33.20;;;;;;943353;150;26273;-76
2022/09/02 08:02:26;;;;;;;1.22;1.00;;;36.60;33.10;;;;;;943227;150;26230;-77
2022/09/02 08:04:53;;;;;;;0.60;0.60;;;36.60;32.90;;;;;;943756;150;26656;-77
2022/09/02 08:07:23;;;;;;;1.00;0.90;;;36.70;32.90;;;;;;943932;149;26221;-76
2022/09/02 08:09:46;;;;;;;0.68;0.53;;;36.80;33.10;;;;;;943179;150;26343;-77
2022/09/02 08:12:12;;;;;;;0.95;0.95;;;37.00;33.20;;;;;;943928;150;26284;-77
2022/09/02 08:14:39;;;;;;;2.12;0.75;;;37.30;33.20;;;;;;944056;148;26257;-77
2022/09/02 08:17:06;;;;;;;0.88;0.88;;;37.70;32.90;;;;;;943677;150;26341;-77
2022/09/02 08:19:32;;;;;;;0.93;0.90;;;38.00;32.50;;;;;;942978;150;27356;-77
2022/09/02 08:22:07;;;;;;;2.17;1.37;;;38.30;31.90;;;;;;943585;150;26331;-76
2022/09/02 08:24:34;;;;;;;0.75;0.75;;;38.50;31.40;;;;;;943165;150;26410;-76
2022/09/02 08:27:01;;;;;;;0.75;0.75;;;38.70;31.30;;;;;;943187;150;26319;-76
2022/09/02 08:29:27;;;;;;;1.02;1.00;;;38.90;31.10;;;;;;943835;150;26219;-76
2022/09/02 08:31:54;;;;;;;0.90;0.90;;;39.00;30.40;;;;;;943727;150;27432;-76
2022/09/02 08:34:20;;;;;;;0.80;0.80;;;39.10;30.10;;;;;;944232;150;26374;-76
2022/09/02 08:36:47;;;;;;;1.17;1.00;;;39.10;29.70;;;;;;943723;150;26266;-76
2022/09/02 08:39:13;;;;;;;2.90;0.78;;;39.10;29.60;;;;;;943915;150;26335;-77
2022/09/02 08:41:52;;;;;;;2.02;1.10;;;39.00;29.70;;;;;;943463;150;26267;-77
2022/09/02 08:44:22;;;;;;;0.98;0.88;;;39.00;29.70;;;;;;943888;150;27353;-77
2022/09/02 08:46:48;;;;;;;1.15;0.88;;;39.00;29.60;;;;;;943387;150;26327;-77
2022/09/02 08:49:15;;;;;;;1.40;0.85;;;39.10;29.50;;;;;;942701;150;27837;-77
2022/09/02 08:51:55;;;;;;;0.90;0.90;;;39.10;29.40;;;;;;941861;150;26928;-77
2022/09/02 08:54:20;;;;;;;0.88;0.88;;;39.10;29.10;;;;;;941935;150;27359;-76
2022/09/02 08:56:48;;;;;;;0.80;0.80;;;39.10;28.90;;;;;;946434;148;26229;-76
2022/09/02 08:59:14;;;;;;;1.27;1.15;;;39.00;28.80;;;;;;953329;148;27885;-77
2022/09/02 09:01:48;;;;;;;1.07;1.00;;;38.90;28.70;;;;;;953272;148;26261;-77
2022/09/02 09:04:18;;;;;;;1.42;0.80;;;38.80;28.60;;;;;;917981;153;27349;-77
2022/09/02 09:06:51;;;;;;;1.90;1.00;;;38.60;28.30;;;;;;942321;149;26238;-77
2022/09/02 09:09:29;;;;;;;0.65;0.65;;;38.50;28.80;;;;;;943273;150;27743;-77
2022/09/02 09:12:04;;;;;;;0.85;0.50;;;38.40;29.10;;;;;;942876;150;26284;-77
2022/09/02 09:14:42;;;;;;;1.82;0.98;;;38.40;29.20;;;;;;925226;150;26235;-77
2022/09/02 09:17:25;;;;;;;4.37;3.00;;;38.50;29.10;;;;;;942235;150;26183;-77
2022/09/02 09:19:52;;;;;;;1.60;1.50;;;38.60;28.90;;;;;;942865;150;26278;-77
2022/09/02 09:22:20;;;;;;;3.00;2.08;;;38.60;28.70;;;;;;943701;150;26284;-77
2022/09/02 09:24:46;;;;;;;2.42;1.77;;;38.50;28.40;;;;;;943598;150;26274;-77
2022/09/02 09:27:13;;;;;;;2.92;1.20;;;38.50;28.30;;;;;;943682;150;26253;-77
2022/09/02 09:29:40;;;;;;;1.80;0.95;;;38.30;28.30;;;;;;942879;150;26238;-77
2022/09/02 09:32:06;;;;;;;0.80;0.75;;;38.10;28.30;;;;;;943679;150;26253;-77
2022/09/02 09:34:51;;;;;;;1.72;0.72;;;38.10;28.30;;;;;;941773;150;26370;-77
2022/09/02 09:37:29;;;;;;;1.25;1.00;;;37.90;28.40;;;;;;943026;150;26354;-77
2022/09/02 09:39:56;;;;;;;1.00;0.75;;;37.80;28.50;;;;;;942107;150;26230;-77
2022/09/02 09:42:37;;;;;;;0.90;0.90;;;37.70;28.40;;;;;;943721;150;26317;-77
2022/09/02 09:45:25;;;;;;;0.70;0.70;;;37.70;28.50;;;;;;943748;150;26266;-77
2022/09/02 09:48:10;;;;;;;1.25;0.68;;;37.70;28.40;;;;;;943460;150;26217;-77
2022/09/02 09:50:36;;;;;;;1.00;0.80;;;37.50;28.20;;;;;;942929;150;26359;-77
2022/09/02 09:53:19;;;;;;;2.70;0.70;;;37.30;28.00;;;;;;943866;150;26296;-77
2022/09/02 09:56:06;;;;;;;1.12;0.95;;;36.90;27.80;;;;;;944316;148;26358;-77
2022/09/02 09:58:35;;;;;;;0.80;0.80;;;36.50;27.80;;;;;;934160;150;27453;-77
2022/09/02 10:01:10;;;;;;;1.55;0.78;;;36.00;27.80;;;;;;952315;148;27454;-77
2022/09/02 10:03:37;;;;;;;1.10;0.95;;;35.50;28.00;;;;;;953693;148;27450;-77
2022/09/02 10:06:04;;;;;;;3.45;1.00;;;35.10;27.60;;;;;;917141;153;27385;-77
2022/09/02 10:08:30;;;;;;;1.77;0.93;;;34.60;28.20;;;;;;950543;148;27337;-77
2022/09/02 10:10:57;;;;;;;0.70;0.70;;;34.10;28.70;;;;;;954010;148;27319;-77
2022/09/02 10:13:24;;;;;;;0.90;0.90;;;33.70;28.60;;;;;;953143;148;27443;-77
2022/09/02 10:15:59;;;;;;;1.62;1.07;;;33.30;28.80;;;;;;953582;148;27431;-77
2022/09/02 10:18:34;;;;;;;0.90;0.75;;;33.00;28.90;;;;;;953405;148;27725;-77
2022/09/02 10:21:13;;;;;;;1.22;1.00;;;32.70;29.00;;;;;;952723;148;27357;-77
2022/09/02 10:24:02;;;;;;;3.87;0.80;;;32.50;29.20;;;;;;953275;148;27340;-77
2022/09/02 10:26:30;;;;;;;4.47;2.00;;;32.10;29.10;;;;;;951666;148;27402;-77
2022/09/02 10:29:15;;;;;;;2.35;1.20;;;31.80;29.20;;;;;;916850;153;27412;-77
2022/09/02 10:32:00;;;;;;;0.90;0.80;;;31.40;29.20;;;;;;952230;148;28350;-77
2022/09/02 10:34:51;;;;;;;0.70;0.70;;;31.10;29.20;;;;;;951565;148;27435;-77
2022/09/02 10:37:17;;;;;;;0.85;0.65;;;30.80;29.40;;;;;;953439;148;27339;-77
2022/09/02 10:39:59;;;;;;;1.95;0.70;;;30.50;29.60;;;;;;952933;148;27330;-77
2022/09/02 10:42:28;;;;;;;0.70;0.70;;;30.30;29.80;;;;;;916559;153;27442;-77
2022/09/02 10:45:16;;;;;;;0.75;0.75;;;30.10;29.80;;;;;;952526;148;28101;-76
2022/09/02 10:47:40;;;;;;;0.82;0.50;;;30.00;30.00;;;;;;952666;148;27331;-76
2022/09/02 10:50:44;;;;;;;4.37;0.95;;;29.80;30.00;;;;;;953594;148;27382;-76
2022/09/02 10:53:35;;;;;;;0.72;0.72;;;29.60;30.10;;;;;;953399;148;27374;-76
2022/09/02 10:56:04;;;;;;;1.25;0.85;;;29.30;30.30;;;;;;953255;148;27454;-77
2022/09/02 10:58:43;;;;;;;1.27;0.68;;;29.10;30.50;;;;;;952925;148;27455;-77
2022/09/02 11:01:10;;;;;;;0.75;0.75;;;28.80;30.80;;;;;;952029;148;27434;-76
2022/09/02 11:03:42;;;;;;;1.57;0.80;;;28.60;31.10;;;;;;951534;148;27424;-76
2022/09/02 11:06:09;;;;;;;0.80;0.80;;;28.50;31.20;;;;;;953160;148;27783;-76
2022/09/02 11:08:53;;;;;;;0.90;0.90;;;28.40;31.40;;;;;;953192;148;27372;-76
2022/09/02 11:11:20;;;;;;;1.32;0.90;;;28.30;31.60;;;;;;949610;148;27465;-77
2022/09/02 11:14:23;;;;;;;0.75;0.70;;;28.30;31.70;;;;;;949484;148;27420;-76
2022/09/02 11:17:01;;;;;;;0.90;0.90;;;28.20;31.90;;;;;;952053;148;27458;-79
2022/09/02 11:19:25;;;;;;;0.98;0.88;;;28.20;32.10;;;;;;950652;148;27357;-77
2022/09/02 11:21:58;;;;;;;0.85;0.85;;;28.20;32.30;;;;;;952039;148;27298;-78
2022/09/02 11:24:39;;;;;;;1.12;0.85;;;28.20;32.30;;;;;;952505;148;27451;-78
2022/09/02 11:27:24;;;;;;;0.70;0.70;;;28.20;32.30;;;;;;952077;148;27356;-78
2022/09/02 11:30:06;;;;;;;1.00;0.90;;;28.10;32.60;;;;;;900586;156;28946;-78
2022/09/02 11:32:58;;;;;;;0.90;0.90;;;28.10;32.30;;;;;;939634;148;27314;-77
2022/09/02 11:35:26;;;;;;;0.78;0.78;;;28.00;32.20;;;;;;953376;148;27338;-77
2022/09/02 11:37:55;;;;;;;1.27;0.80;;;28.00;32.30;;;;;;953102;148;27357;-78
2022/09/02 11:40:36;;;;;;;1.52;0.60;;;28.00;32.60;;;;;;952845;148;28343;-78
2022/09/02 11:43:18;;;;;;;1.17;1.00;;;28.00;32.80;;;;;;934837;148;27410;-78
2022/09/02 11:45:55;;;;;;;1.10;0.90;;;28.00;32.80;;;;;;936463;150;27329;-78
2022/09/02 11:48:28;;;;;;;1.40;0.85;;;28.10;32.90;;;;;;933115;148;27357;-78
2022/09/02 11:51:06;;;;;;;0.70;0.70;;;28.20;32.80;;;;;;951161;148;27415;-78
2022/09/02 11:53:42;;;;;;;0.68;0.50;;;28.30;32.50;;;;;;954563;148;27313;-78
2022/09/02 11:56:20;;;;;;;0.90;0.82;;;28.50;32.30;;;;;;917319;153;27424;-78
2022/09/02 11:58:47;;;;;;;1.22;0.70;;;28.50;32.20;;;;;;940902;148;27411;-78
2022/09/02 12:01:29;;;;;;;0.80;0.80;;;28.60;32.20;;;;;;938972;150;27862;-79
2022/09/02 12:04:01;;;;;;;1.90;0.60;;;28.70;32.10;;;;;;938650;150;27325;-78
2022/09/02 12:06:28;;;;;;;0.57;0.55;;;28.70;31.90;;;;;;938475;150;27391;-78
2022/09/02 12:08:54;;;;;;;0.80;0.80;;;28.80;31.70;;;;;;939254;150;27348;-78
2022/09/02 12:11:40;;;;;;;0.90;0.78;;;28.80;31.60;;;;;;938649;150;27383;-78
2022/09/02 12:14:05;;;;;;;1.85;0.70;;;28.70;31.40;;;;;;938452;150;27426;-77
2022/09/02 12:16:34;;;;;;;1.57;0.88;;;28.70;31.40;;;;;;937996;150;27421;-78
2022/09/02 12:19:06;;;;;;;0.50;0.50;;;28.60;31.30;;;;;;938860;150;27372;-78
2022/09/02 12:21:28;;;;;;;0.65;0.65;;;28.50;31.30;;;;;;938821;150;27734;-78
2022/09/02 12:23:57;;;;;;;1.65;0.78;;;28.40;31.40;;;;;;938844;150;27333;-79
2022/09/02 12:26:36;;;;;;;2.83;0.80;;;28.40;31.60;;;;;;938372;150;27340;-78
2022/09/02 12:29:23;;;;;;;1.35;0.93;;;28.30;31.70;;;;;;937843;150;27319;-78
2022/09/02 12:31:53;;;;;;;2.00;0.85;;;28.30;31.80;;;;;;937150;150;27348;-78
2022/09/02 12:34:22;;;;;;;0.53;0.53;;;28.30;31.80;;;;;;915586;153;27398;-78
2022/09/02 12:36:54;;;;;;;2.02;1.00;;;28.30;31.70;;;;;;914634;153;27366;-78
2022/09/02 12:39:24;;;;;;;0.65;0.65;;;28.30;31.70;;;;;;939240;150;27353;-78
2022/09/02 12:42:11;;;;;;;1.47;0.72;;;28.20;31.60;;;;;;937525;150;27385;-78
2022/09/02 12:45:11;;;;;;;0.60;0.60;;;28.20;31.60;;;;;;939306;150;27437;-78
2022/09/02 12:48:02;;;;;;;0.50;0.50;;;28.10;31.60;;;;;;938373;150;27365;-78
2022/09/02 12:50:34;;;;;;;0.85;0.85;;;28.10;31.80;;;;;;938487;150;27432;-78
2022/09/02 12:53:23;;;;;;;0.65;0.65;;;28.00;32.00;;;;;;935549;150;28746;-78
2022/09/02 12:56:05;;;;;;;1.52;0.70;;;28.00;32.00;;;;;;938856;150;27355;-78
2022/09/02 12:58:40;;;;;;;1.57;0.80;;;28.00;32.00;;;;;;939118;150;27383;-77
2022/09/02 13:01:37;;;;;;;0.57;0.57;;;28.00;32.00;;;;;;942629;150;27352;-77